Time;durP1;ratioP1;P1;durP2;ratioP2;P2;SDS_P1;SDS_P2;PMS_P1;PMS_P2;Temp;Humidity;BMP_temperature;BMP_pressure;BME280_temperature;BME280_humidity;BME280_pressure;Samples;Min_cycle;Max_cycle;Signal;HPM_P1;HPM_P2
2022/02/05 00:01:11;;;;;;;;;;;;;;;21.73;44.08;100310.94;5083782;28;4204;-62
2022/02/05 00:03:42;;;;;;;;;;;;;;;21.72;44.00;100311.63;5085036;28;4161;-61
2022/02/05 00:06:11;;;;;;;;;;;;;;;21.72;43.90;100312.38;5085229;28;4139;-62
2022/02/05 00:08:59;;;;;;;;;;;;;;;21.72;43.91;100306.59;5084195;28;4729;-61
2022/02/05 00:14:32;;;;;;;;;;;;;;;21.72;44.06;100329.66;5084438;28;4510;-62
2022/02/05 00:20:06;;;;;;;;;;;;;;;21.73;43.89;100331.13;5084320;28;4273;-61
2022/02/05 00:20:22;;;;;;;;;;;;;;;21.73;44.11;100339.75;5082757;28;4671;-62
2022/02/05 00:33:15;;;;;;;;;;;;;;;21.72;44.08;100341.19;5083511;28;5411;-61
2022/02/05 00:41:52;;;;;;;;;;;;;;;21.72;44.01;100390.16;5081111;28;4226;-61
2022/02/05 00:44:18;;;;;;;;;;;;;;;21.73;44.00;100385.13;5081513;28;5344;-61
2022/02/05 00:46:46;;;;;;;;;;;;;;;21.72;43.85;100387.28;5082084;28;4050;-61
2022/02/05 00:49:14;;;;;;;;;;;;;;;21.71;44.08;100403.09;5079229;28;4527;-61
2022/02/05 00:51:52;;;;;;;;;;;;;;;21.70;44.02;100401.63;5076888;28;4207;-61
2022/02/05 00:54:22;;;;;;;;;;;;;;;21.70;44.04;100395.88;5082830;28;4153;-61
2022/02/05 00:57:06;;;;;;;;;;;;;;;21.70;44.04;100410.28;5085820;28;5201;-62
2022/02/05 00:59:32;;;;;;;;;;;;;;;21.71;43.80;100423.25;5076930;28;4150;-62
2022/02/05 01:01:59;;;;;;;;;;;;;;;21.73;43.96;100416.84;5080937;28;5333;-61
2022/02/05 01:04:25;;;;;;;;;;;;;;;21.72;43.94;100418.97;5082244;28;4229;-62
2022/02/05 01:06:51;;;;;;;;;;;;;;;21.73;43.80;100429.09;5080991;28;4179;-61
2022/02/05 01:09:22;;;;;;;;;;;;;;;21.72;43.75;100436.28;5083893;28;3958;-61
2022/02/05 01:11:49;;;;;;;;;;;;;;;21.71;44.07;100425.41;5081810;28;4064;-61
2022/02/05 01:14:19;;;;;;;;;;;;;;;21.71;43.77;100440.56;5079860;28;3973;-62
2022/02/05 01:17:00;;;;;;;;;;;;;;;21.71;43.81;100449.19;5083666;28;4066;-61
2022/02/05 01:20:01;;;;;;;;;;;;;;;21.70;43.85;100449.88;5062809;28;4158;-62
2022/02/05 01:22:22;;;;;;;;;;;;;;;21.69;43.91;100449.16;5059772;28;4070;-62
2022/02/05 01:24:50;;;;;;;;;;;;;;;21.71;44.07;100449.19;5061100;28;4542;-61
2022/02/05 01:30:28;;;;;;;;;;;;;;;21.72;44.04;100461.47;5069633;28;4271;-62
2022/02/05 01:33:28;;;;;;;;;;;;;;;21.72;43.95;100462.22;5064437;28;4051;-62
2022/02/05 01:50:01;;;;;;;;;;;;;;;21.70;43.69;100470.78;5076463;28;4040;-62
2022/02/05 01:52:41;;;;;;;;;;;;;;;21.71;43.84;100477.28;5083710;28;4112;-61
2022/02/05 01:55:18;;;;;;;;;;;;;;;21.71;43.85;100480.16;5064844;28;4347;-61
2022/02/05 02:05:39;;;;;;;;;;;;;;;21.69;43.73;100498.13;5073346;28;6209;-61
2022/02/05 02:11:20;;;;;;;;;;;;;;;21.67;43.75;100480.00;5084950;28;4231;-61
2022/02/05 02:17:09;;;;;;;;;;;;;;;21.68;43.73;100496.66;5081361;28;4113;-61
2022/02/05 02:19:53;;;;;;;;;;;;;;;21.69;43.68;100497.38;5067032;28;4265;-61
2022/02/05 02:22:28;;;;;;;;;;;;;;;21.68;43.55;100505.28;5080899;28;4496;-61
2022/02/05 02:25:04;;;;;;;;;;;;;;;21.68;43.59;100516.81;5082211;28;4103;-61
2022/02/05 02:27:47;;;;;;;;;;;;;;;21.69;43.78;100509.66;5076447;28;4476;-61
2022/02/05 02:30:18;;;;;;;;;;;;;;;21.67;43.75;100511.72;5078391;28;4543;-61
2022/02/05 02:32:50;;;;;;;;;;;;;;;21.67;43.66;100512.47;5081443;28;4042;-61
2022/02/05 02:35:21;;;;;;;;;;;;;;;21.65;43.76;100526.81;5083187;28;4455;-62
2022/02/05 02:37:53;;;;;;;;;;;;;;;21.66;43.63;100524.66;5082587;28;4220;-61
2022/02/05 02:40:36;;;;;;;;;;;;;;;21.67;43.60;100546.28;5063734;28;4062;-61
2022/02/05 02:43:07;;;;;;;;;;;;;;;21.67;43.78;100541.28;5061061;28;4210;-62
2022/02/05 02:45:34;;;;;;;;;;;;;;;21.67;43.76;100547.03;5068876;28;4215;-62
2022/02/05 02:48:01;;;;;;;;;;;;;;;21.67;43.67;100547.03;5070297;28;4100;-62
2022/02/05 02:50:33;;;;;;;;;;;;;;;21.67;43.55;100535.53;5079861;28;4038;-62
2022/02/05 02:58:34;;;;;;;;;;;;;;;21.65;43.52;100543.34;5071079;28;4170;-61
2022/02/05 03:01:01;;;;;;;;;;;;;;;21.64;43.59;100548.38;5066820;28;4152;-61
2022/02/05 03:03:28;;;;;;;;;;;;;;;21.64;43.80;100554.13;5064891;28;5262;-61
2022/02/05 03:05:54;;;;;;;;;;;;;;;21.66;43.71;100567.88;5068127;28;4016;-61
2022/02/05 03:08:20;;;;;;;;;;;;;;;21.68;43.54;100560.03;5076454;28;4157;-61
2022/02/05 03:10:47;;;;;;;;;;;;;;;21.67;43.58;100570.09;5068565;28;4185;-61
2022/02/05 03:13:13;;;;;;;;;;;;;;;21.67;43.43;100563.56;5062602;28;4183;-61
2022/02/05 03:15:44;;;;;;;;;;;;;;;21.66;43.63;100577.25;5063251;28;4614;-61
2022/02/05 03:18:16;;;;;;;;;;;;;;;21.66;43.42;100580.13;5066544;28;4284;-61
2022/02/05 03:20:42;;;;;;;;;;;;;;;21.64;43.61;100577.19;5066246;28;4135;-61
2022/02/05 03:23:08;;;;;;;;;;;;;;;21.64;43.67;100582.94;5064213;28;4129;-61
2022/02/05 03:25:35;;;;;;;;;;;;;;;21.64;43.57;100582.22;5085352;28;4144;-61
2022/02/05 03:28:01;;;;;;;;;;;;;;;21.64;43.78;100582.94;5082543;28;5045;-62
2022/02/05 03:30:28;;;;;;;;;;;;;;;21.64;43.63;100580.06;5083121;28;4393;-61
2022/02/05 03:32:56;;;;;;;;;;;;;;;21.64;43.50;100577.19;5083507;28;4323;-61
2022/02/05 03:35:22;;;;;;;;;;;;;;;21.65;43.45;100584.44;5084477;28;5241;-61
2022/02/05 03:37:48;;;;;;;;;;;;;;;21.64;43.66;100585.81;5084922;28;4127;-61
2022/02/05 03:40:15;;;;;;;;;;;;;;;21.64;43.52;100594.47;5082491;28;5327;-61
2022/02/05 03:42:41;;;;;;;;;;;;;;;21.63;43.52;100593.00;5082520;28;4241;-61
2022/02/05 03:45:09;;;;;;;;;;;;;;;21.64;43.58;100587.97;5084110;28;4497;-61
2022/02/05 03:47:35;;;;;;;;;;;;;;;21.63;43.78;100581.47;5084888;28;5407;-61
2022/02/05 03:50:03;;;;;;;;;;;;;;;21.64;43.63;100582.94;5084162;28;4267;-62
2022/02/05 03:52:30;;;;;;;;;;;;;;;21.64;43.58;100582.94;5083740;28;5389;-62
2022/02/05 03:54:56;;;;;;;;;;;;;;;21.63;43.57;100587.25;5086575;28;4209;-66
2022/02/05 03:57:22;;;;;;;;;;;;;;;21.66;43.55;100588.03;5085092;28;4265;-61
2022/02/05 03:59:50;;;;;;;;;;;;;;;21.67;43.43;100592.41;5085048;28;5273;-61
2022/02/05 04:02:16;;;;;;;;;;;;;;;21.67;43.61;100586.63;5086082;28;4177;-61
2022/02/05 04:04:43;;;;;;;;;;;;;;;21.67;43.59;100581.63;5084910;28;6285;-61
2022/02/05 04:07:09;;;;;;;;;;;;;;;21.67;43.45;100590.28;5087357;28;4239;-61
2022/02/05 04:09:39;;;;;;;;;;;;;;;21.67;43.58;100590.28;5087539;28;4185;-62
2022/02/05 04:17:36;;;;;;;;;;;;;;;21.67;43.32;100604.69;5085594;28;5218;-61
2022/02/05 04:20:03;;;;;;;;;;;;;;;21.68;43.50;100606.16;5083186;28;5329;-61
2022/02/05 04:22:29;;;;;;;;;;;;;;;21.66;43.25;100611.84;5084579;28;4137;-61
2022/02/05 04:24:55;;;;;;;;;;;;;;;21.65;43.51;100604.59;5069359;28;4169;-61
2022/02/05 04:27:22;;;;;;;;;;;;;;;21.65;43.46;100613.25;5082949;28;4157;-61
2022/02/05 04:29:48;;;;;;;;;;;;;;;21.66;43.55;100613.97;5083652;28;4191;-62
2022/02/05 04:32:15;;;;;;;;;;;;;;;21.66;43.60;100619.75;5083624;28;6053;-61
2022/02/05 04:34:41;;;;;;;;;;;;;;;21.66;43.53;100620.47;5078879;28;4130;-61
2022/02/05 04:37:07;;;;;;;;;;;;;;;21.67;43.66;100621.97;5080724;28;4135;-61
2022/02/05 04:39:37;;;;;;;;;;;;;;;21.69;43.56;100618.41;5086935;28;4230;-61
2022/02/05 04:42:11;;;;;;;;;;;;;;;21.69;43.68;100613.41;5084672;28;4360;-61
2022/02/05 04:45:15;;;;;;;;;;;;;;;21.69;43.66;100622.06;5088667;28;5327;-61
2022/02/05 04:50:17;;;;;;;;;;;;;;;21.70;43.62;100632.16;5084825;28;4437;-61
2022/02/05 04:53:16;;;;;;;;;;;;;;;21.69;43.71;100635.69;5083014;28;4489;-61
2022/02/05 05:03:38;;;;;;;;;;;;;;;21.67;43.60;100636.38;5085763;28;3971;-61
2022/02/05 05:06:25;;;;;;;;;;;;;;;21.69;43.58;100635.69;5084649;28;4229;-61
2022/02/05 05:09:07;;;;;;;;;;;;;;;21.70;43.80;100652.34;5086496;28;4041;-61
2022/02/05 05:21:52;;;;;;;;;;;;;;;21.68;43.89;100652.25;5084395;28;4386;-61
2022/02/05 05:24:18;;;;;;;;;;;;;;;21.67;43.66;100662.31;5076190;28;4575;-61
2022/02/05 05:26:45;;;;;;;;;;;;;;;21.68;43.68;100660.91;5079825;28;4219;-61
2022/02/05 05:29:11;;;;;;;;;;;;;;;21.69;43.63;100665.28;5085590;28;4198;-61
2022/02/05 05:31:37;;;;;;;;;;;;;;;21.70;43.73;100663.13;5080482;28;4340;-61
2022/02/05 05:34:04;;;;;;;;;;;;;;;21.70;43.96;100660.97;5085563;28;4269;-61
2022/02/05 05:36:30;;;;;;;;;;;;;;;21.71;43.68;100673.97;5083163;28;4363;-61
2022/02/05 05:39:02;;;;;;;;;;;;;;;21.71;43.79;100665.31;5083316;28;4041;-61
2022/02/05 05:41:29;;;;;;;;;;;;;;;21.71;43.77;100668.22;5085240;28;5148;-60
2022/02/05 05:44:14;;;;;;;;;;;;;;;21.71;43.94;100676.84;5084115;28;5201;-61
2022/02/05 05:46:44;;;;;;;;;;;;;;;21.70;43.99;100678.28;5081654;28;5597;-60
2022/02/05 05:51:39;;;;;;;;;;;;;;;21.71;43.93;100679.00;5083951;28;4220;-60
2022/02/05 05:54:06;;;;;;;;;;;;;;;21.71;44.00;100679.00;5084678;28;4145;-61
2022/02/05 05:56:32;;;;;;;;;;;;;;;21.72;43.79;100678.34;5081735;28;4118;-61
2022/02/05 05:58:59;;;;;;;;;;;;;;;21.72;43.91;100678.34;5085169;28;5329;-61
2022/02/05 06:01:25;;;;;;;;;;;;;;;21.71;43.93;100676.84;5083877;28;4193;-61
2022/02/05 06:03:52;;;;;;;;;;;;;;;21.72;43.96;100681.22;5081781;28;4243;-61
2022/02/05 06:06:18;;;;;;;;;;;;;;;21.70;43.75;100684.03;5081370;28;4137;-61
2022/02/05 06:08:44;;;;;;;;;;;;;;;21.70;44.01;100695.56;5083934;28;5473;-60
2022/02/05 06:11:11;;;;;;;;;;;;;;;21.70;43.72;100709.97;5084711;28;4208;-61
2022/02/05 06:13:37;;;;;;;;;;;;;;;21.70;43.91;100712.84;5084731;28;5302;-61
2022/02/05 06:16:08;;;;;;;;;;;;;;;21.71;43.99;100713.59;5084201;28;4157;-61
2022/02/05 06:18:34;;;;;;;;;;;;;;;21.72;43.83;100715.81;5082955;28;5221;-61
2022/02/05 06:21:00;;;;;;;;;;;;;;;21.72;43.76;100720.84;5083665;28;4127;-61
2022/02/05 06:23:27;;;;;;;;;;;;;;;21.72;44.03;100712.94;5086653;28;4211;-61
2022/02/05 06:25:53;;;;;;;;;;;;;;;21.73;44.09;100700.00;5084860;28;4233;-61
2022/02/05 06:28:19;;;;;;;;;;;;;;;21.74;44.10;100718.03;5088100;28;4151;-61
2022/02/05 06:30:46;;;;;;;;;;;;;;;21.74;43.72;100718.78;5086934;28;5746;-60
2022/02/05 06:33:12;;;;;;;;;;;;;;;21.72;43.86;100724.47;5086133;28;3999;-61
2022/02/05 06:35:40;;;;;;;;;;;;;;;21.73;43.97;100728.81;5087849;28;4236;-61
2022/02/05 06:38:06;;;;;;;;;;;;;;;21.72;43.88;100724.47;5088171;28;5130;-61
2022/02/05 06:40:32;;;;;;;;;;;;;;;21.73;43.80;100740.34;5087752;28;4228;-61
2022/02/05 06:42:59;;;;;;;;;;;;;;;21.72;44.03;100738.88;5089495;28;4189;-61
2022/02/05 06:45:25;;;;;;;;;;;;;;;21.73;43.80;100740.34;5086429;28;4355;-61
2022/02/05 06:47:51;;;;;;;;;;;;;;;21.71;43.99;100754.66;5089700;28;6238;-61
2022/02/05 06:50:17;;;;;;;;;;;;;;;21.71;43.98;100745.28;5086032;28;4164;-61
2022/02/05 06:52:44;;;;;;;;;;;;;;;21.71;44.02;100754.66;5078317;28;4310;-61
2022/02/05 06:55:10;;;;;;;;;;;;;;;21.71;44.06;100751.06;5086196;28;5437;-61
2022/02/05 06:57:37;;;;;;;;;;;;;;;21.70;43.82;100753.19;5086978;28;4208;-61
2022/02/05 07:00:03;;;;;;;;;;;;;;;21.19;41.14;100761.91;5086127;28;5570;-62
2022/02/05 07:02:29;;;;;;;;;;;;;;;20.83;41.20;100788.50;5085804;28;4162;-62
2022/02/05 07:04:56;;;;;;;;;;;;;;;21.06;41.46;100793.06;5086144;28;4498;-61
2022/02/05 07:07:22;;;;;;;;;;;;;;;21.26;42.00;100804.72;5064347;28;4159;-62
2022/02/05 07:09:48;;;;;;;;;;;;;;;21.31;43.16;100812.13;5078574;28;4122;-62
2022/02/05 07:12:15;;;;;;;;;;;;;;;21.33;42.98;100820.84;5077720;28;4278;-62
2022/02/05 07:14:59;;;;;;;;;;;;;;;21.36;42.92;100823.81;5086784;28;4274;-61
2022/02/05 07:17:46;;;;;;;;;;;;;;;21.38;42.77;100815.25;5085684;28;4148;-60
2022/02/05 07:20:38;;;;;;;;;;;;;;;21.43;42.97;100814.06;5086547;28;5430;-63
2022/02/05 07:31:00;;;;;;;;;;;;;;;21.58;43.59;100839.16;5086215;28;4753;-62
2022/02/05 07:33:27;;;;;;;;;;;;;;;21.55;43.62;100834.72;5086797;28;4172;-60
2022/02/05 07:35:58;;;;;;;;;;;;;;;21.65;43.76;100834.41;5088737;28;4171;-62
2022/02/05 07:38:24;;;;;;;;;;;;;;;21.59;43.76;100834.88;5061615;28;4227;-67
2022/02/05 07:40:51;;;;;;;;;;;;;;;21.63;44.14;100831.44;5085958;28;4212;-61
2022/02/05 07:43:17;;;;;;;;;;;;;;;21.63;43.73;100840.09;5087008;28;4139;-61
2022/02/05 07:45:44;;;;;;;;;;;;;;;21.54;43.94;100839.72;5086588;28;4296;-66
2022/02/05 07:48:10;;;;;;;;;;;;;;;21.47;43.57;100846.66;5085904;28;4289;-62
2022/02/05 07:50:36;;;;;;;;;;;;;;;21.44;43.28;100881.78;5084502;28;4039;-62
2022/02/05 07:53:03;;;;;;;;;;;;;;;21.51;43.47;100874.91;5085307;28;4270;-62
2022/02/05 07:55:29;;;;;;;;;;;;;;;21.56;43.83;100882.31;5085737;28;4050;-62
2022/02/05 07:57:55;;;;;;;;;;;;;;;21.57;43.68;100883.78;5085387;28;5184;-61
2022/02/05 08:00:22;;;;;;;;;;;;;;;21.61;43.80;100880.34;5087064;28;4220;-62
2022/02/05 08:02:49;;;;;;;;;;;;;;;21.61;43.81;100869.53;5085316;28;5303;-62
2022/02/05 08:05:15;;;;;;;;;;;;;;;21.60;44.06;100870.94;5086839;28;4135;-63
2022/02/05 08:07:42;;;;;;;;;;;;;;;21.65;44.34;100872.59;5083701;28;4315;-61
2022/02/05 08:10:10;;;;;;;;;;;;;;;21.62;44.15;100868.13;5086201;28;4171;-61
2022/02/05 08:12:40;;;;;;;;;;;;;;;21.66;44.42;100873.34;5082947;28;4016;-62
2022/02/05 08:15:06;;;;;;;;;;;;;;;21.65;44.22;100880.50;5085829;28;5368;-63
2022/02/05 08:17:35;;;;;;;;;;;;;;;21.58;44.36;100891.03;5086344;28;4309;-63
2022/02/05 08:20:02;;;;;;;;;;;;;;;21.58;44.58;100891.03;5085554;28;4211;-62
2022/02/05 08:22:29;;;;;;;;;;;;;;;21.58;44.68;100902.56;5086298;28;5332;-73
2022/02/05 08:24:55;;;;;;;;;;;;;;;21.62;44.62;100896.94;5081615;28;4186;-63
2022/02/05 08:27:21;;;;;;;;;;;;;;;21.60;44.55;100896.88;5084102;28;4171;-61
2022/02/05 08:30:00;;;;;;;;;;;;;;;21.62;44.73;100902.72;5086270;28;4153;-61
2022/02/05 08:32:28;;;;;;;;;;;;;;;21.64;44.80;100905.69;5086409;28;4128;-61
2022/02/05 08:34:54;;;;;;;;;;;;;;;21.60;44.90;100905.53;5086360;28;4128;-60
2022/02/05 08:37:21;;;;;;;;;;;;;;;21.59;44.69;100906.19;5084687;28;4176;-63
2022/02/05 08:39:47;;;;;;;;;;;;;;;21.59;44.80;100900.41;5084975;28;4045;-65
2022/02/05 08:42:13;;;;;;;;;;;;;;;21.55;45.00;100921.16;5081340;28;4082;-63
2022/02/05 08:44:40;;;;;;;;;;;;;;;21.59;45.35;100927.09;5085504;28;5185;-64
2022/02/05 08:47:06;;;;;;;;;;;;;;;21.62;45.46;100925.75;5085711;28;4145;-62
2022/02/05 08:49:32;;;;;;;;;;;;;;;21.59;45.25;100938.63;5086908;28;4256;-64
2022/02/05 08:52:01;;;;;;;;;;;;;;;21.59;45.58;100940.75;5084140;28;4141;-64
2022/02/05 08:54:27;;;;;;;;;;;;;;;21.57;45.02;100929.16;5083081;28;5351;-62
2022/02/05 08:56:54;;;;;;;;;;;;;;;21.58;45.27;100936.38;5081643;28;4207;-65
2022/02/05 08:59:20;;;;;;;;;;;;;;;21.63;45.03;100940.94;5082791;28;4508;-67
2022/02/05 09:01:59;;;;;;;;;;;;;;;21.59;45.20;100938.63;5083885;28;4176;-64
2022/02/05 09:04:44;;;;;;;;;;;;;;;21.58;44.99;100945.78;5085219;28;4244;-61
2022/02/05 09:07:11;;;;;;;;;;;;;;;21.57;45.36;100947.16;5085574;28;5272;-64
2022/02/05 09:09:51;;;;;;;;;;;;;;;21.52;45.30;100943.38;5080947;28;4218;-62
2022/02/05 09:12:31;;;;;;;;;;;;;;;21.59;45.38;100955.91;5081468;28;4142;-64
2022/02/05 09:14:58;;;;;;;;;;;;;;;21.61;45.51;100958.88;5069895;28;4205;-62
2022/02/05 09:17:24;;;;;;;;;;;;;;;21.62;45.42;100962.50;5085863;28;4124;-62
2022/02/05 09:19:51;;;;;;;;;;;;;;;21.60;45.36;100954.53;5085150;28;4209;-62
2022/02/05 09:22:17;;;;;;;;;;;;;;;21.60;45.29;100966.03;5086152;28;4143;-61
2022/02/05 09:24:43;;;;;;;;;;;;;;;21.60;45.31;100977.56;5085275;28;4161;-63
2022/02/05 09:27:12;;;;;;;;;;;;;;;21.09;43.21;100976.03;5078710;28;4345;-63
2022/02/05 09:32:34;;;;;;;;;;;;;;;21.36;43.63;100985.84;5074401;28;4177;-62
2022/02/05 09:35:00;;;;;;;;;;;;;;;21.41;43.44;100986.81;5083983;28;4147;-61
2022/02/05 09:37:27;;;;;;;;;;;;;;;21.45;43.69;100995.63;5084838;28;4368;-61
2022/02/05 09:39:53;;;;;;;;;;;;;;;21.47;44.49;100998.59;5084447;28;4355;-62
2022/02/05 09:42:20;;;;;;;;;;;;;;;21.51;44.96;100996.63;5078264;28;5683;-60
2022/02/05 09:44:46;;;;;;;;;;;;;;;21.51;45.10;100993.03;5083130;28;4203;-62
2022/02/05 09:47:12;;;;;;;;;;;;;;;21.50;45.26;101003.06;5063108;28;4205;-62
2022/02/05 09:49:40;;;;;;;;;;;;;;;21.56;45.63;101008.34;5083252;28;4146;-61
2022/02/05 09:52:09;;;;;;;;;;;;;;;21.40;43.66;101019.88;5083752;28;4125;-68
2022/02/05 09:54:35;;;;;;;;;;;;;;;20.88;41.20;101026.16;5083167;28;4278;-68
2022/02/05 09:57:02;;;;;;;;;;;;;;;20.67;40.28;101012.97;5065513;28;4309;-67
2022/02/05 09:59:28;;;;;;;;;;;;;;;20.89;40.52;101021.91;5080728;28;4272;-60
2022/02/05 10:02:13;;;;;;;;;;;;;;;21.06;40.30;101022.66;5085320;28;4138;-62
2022/02/05 10:04:53;;;;;;;;;;;;;;;21.19;40.30;101023.94;5082275;28;4248;-68
2022/02/05 10:07:55;;;;;;;;;;;;;;;21.19;42.50;101027.59;5083176;28;4621;-61
2022/02/05 10:10:22;;;;;;;;;;;;;;;21.30;42.57;101029.53;5079672;28;4480;-62
2022/02/05 10:13:07;;;;;;;;;;;;;;;21.32;43.36;101041.13;5084393;28;4169;-62
2022/02/05 10:15:34;;;;;;;;;;;;;;;21.38;43.75;101028.41;5083588;28;4049;-63
2022/02/05 10:18:02;;;;;;;;;;;;;;;21.43;43.84;101027.22;5084537;28;4126;-60
2022/02/05 10:20:29;;;;;;;;;;;;;;;21.50;43.96;101034.75;5083853;28;4276;-63
2022/02/05 10:22:57;;;;;;;;;;;;;;;21.51;44.37;101033.38;5082976;28;4206;-60
2022/02/05 10:25:27;;;;;;;;;;;;;;;21.72;44.33;101037.88;5063170;28;4137;-62
2022/02/05 10:27:54;;;;;;;;;;;;;;;21.66;43.97;101028.94;5083636;28;4317;-62
2022/02/05 10:30:24;;;;;;;;;;;;;;;21.65;44.59;101039.75;5081040;28;4052;-72
2022/02/05 10:33:10;;;;;;;;;;;;;;;21.64;44.80;101049.03;5070643;28;3991;-71
2022/02/05 10:35:42;;;;;;;;;;;;;;;21.68;46.55;101044.19;5080353;28;4182;-67
2022/02/05 10:43:08;;;;;;;;;;;;;;;21.65;44.55;101042.63;5057558;28;5605;-69
2022/02/05 10:45:47;;;;;;;;;;;;;;;21.67;44.80;101057.13;5059233;28;4247;-61
2022/02/05 10:48:17;;;;;;;;;;;;;;;21.77;44.33;101067.63;5069454;28;4316;-61
2022/02/05 10:50:44;;;;;;;;;;;;;;;21.79;43.93;101059.06;5081409;28;4152;-61
2022/02/05 10:53:19;;;;;;;;;;;;;;;21.80;44.13;101061.28;5079502;28;4062;-61
2022/02/05 11:07:09;;;;;;;;;;;;;;;21.69;44.05;101067.97;5079900;28;5173;-69
2022/02/05 11:09:39;;;;;;;;;;;;;;;21.75;44.01;101066.13;5082633;28;5481;-73
2022/02/05 11:12:48;;;;;;;;;;;;;;;21.75;44.04;101060.34;5081686;28;4207;-70
2022/02/05 11:15:25;;;;;;;;;;;;;;;21.73;44.03;101048.72;5087551;28;5252;-67
2022/02/05 11:20:37;;;;;;;;;;;;;;;21.69;43.96;101050.69;5088129;28;4180;-66
2022/02/05 11:23:03;;;;;;;;;;;;;;;21.63;44.21;101051.19;5082736;28;4164;-67
2022/02/05 11:25:31;;;;;;;;;;;;;;;21.70;44.12;101047.16;5064144;28;4103;-64
2022/02/05 11:27:57;;;;;;;;;;;;;;;21.71;44.37;101054.41;5083659;28;4182;-68
2022/02/05 11:30:26;;;;;;;;;;;;;;;21.71;44.43;101054.41;5086198;28;4420;-65
2022/02/05 11:32:53;;;;;;;;;;;;;;;21.73;44.65;101053.75;5080742;28;4185;-66
2022/02/05 11:35:30;;;;;;;;;;;;;;;21.73;44.52;101057.38;5083716;28;4117;-64
2022/02/05 11:37:57;;;;;;;;;;;;;;;21.70;45.39;101040.66;5086234;28;4132;-64
2022/02/05 11:40:39;;;;;;;;;;;;;;;21.71;45.20;101051.53;5087031;28;4359;-60
2022/02/05 11:43:24;;;;;;;;;;;;;;;21.65;44.77;101033.97;5082740;28;4274;-63
2022/02/05 11:46:10;;;;;;;;;;;;;;;21.69;45.18;101044.94;5086940;28;4226;-63
2022/02/05 11:48:37;;;;;;;;;;;;;;;21.70;44.96;101038.53;5086198;28;4152;-63
2022/02/05 11:51:22;;;;;;;;;;;;;;;21.72;45.40;101032.84;5081539;28;5228;-63
2022/02/05 11:53:58;;;;;;;;;;;;;;;21.76;46.23;101035.16;5086124;28;5468;-78
2022/02/05 11:56:34;;;;;;;;;;;;;;;21.21;41.62;101044.97;5084617;28;4136;-62
2022/02/05 11:59:00;;;;;;;;;;;;;;;21.27;42.71;101042.34;5084497;28;4197;-66
2022/02/05 12:01:33;;;;;;;;;;;;;;;21.49;43.51;101039.03;5079169;28;5064;-61
2022/02/05 12:04:15;;;;;;;;;;;;;;;21.65;43.64;101033.97;5086024;28;4157;-63
2022/02/05 12:06:48;;;;;;;;;;;;;;;21.65;43.40;101039.75;5085777;28;4160;-64
2022/02/05 12:09:33;;;;;;;;;;;;;;;21.73;44.38;101045.09;5085969;28;4257;-64
2022/02/05 12:12:18;;;;;;;;;;;;;;;22.10;44.44;101040.91;5081530;28;4224;-64
2022/02/05 12:15:03;;;;;;;;;;;;;;;22.24;43.90;101043.66;5086295;28;4376;-63
2022/02/05 12:17:39;;;;;;;;;;;;;;;22.27;43.48;101042.38;5085169;28;4102;-64
2022/02/05 12:20:10;;;;;;;;;;;;;;;22.37;43.10;101042.78;5068404;28;4128;-64
2022/02/05 12:22:56;;;;;;;;;;;;;;;22.39;43.16;101042.88;5081574;28;4224;-64
2022/02/05 12:25:23;;;;;;;;;;;;;;;22.14;42.45;101044.72;5081058;28;4178;-63
2022/02/05 12:27:49;;;;;;;;;;;;;;;21.96;43.49;101049.69;5088388;28;5517;-68
2022/02/05 12:30:29;;;;;;;;;;;;;;;21.94;43.42;101047.50;5082573;28;4070;-69
2022/02/05 12:32:56;;;;;;;;;;;;;;;21.92;43.13;101049.53;5081832;28;4055;-69
2022/02/05 12:35:22;;;;;;;;;;;;;;;21.89;43.31;101047.97;5086040;28;4184;-67
2022/02/05 12:37:48;;;;;;;;;;;;;;;21.89;43.33;101050.84;5087117;28;3994;-70
2022/02/05 12:40:15;;;;;;;;;;;;;;;21.88;43.34;101050.09;5086330;28;5302;-68
2022/02/05 12:42:51;;;;;;;;;;;;;;;21.84;43.49;101041.28;5082714;28;4277;-67
2022/02/05 12:45:43;;;;;;;;;;;;;;;21.84;44.10;101049.19;5083328;28;4101;-68
2022/02/05 12:48:10;;;;;;;;;;;;;;;21.84;43.85;101052.06;5076693;28;4286;-66
2022/02/05 12:50:39;;;;;;;;;;;;;;;21.88;44.77;101055.88;5082048;28;4228;-61
2022/02/05 12:53:07;;;;;;;;;;;;;;;21.85;45.12;101051.41;5082638;28;5237;-61
2022/02/05 12:55:43;;;;;;;;;;;;;;;21.90;45.48;101049.47;5080373;28;4134;-63
2022/02/05 12:58:09;;;;;;;;;;;;;;;21.83;44.60;101053.44;5078264;28;4211;-63
2022/02/05 13:00:36;;;;;;;;;;;;;;;21.84;44.65;101054.94;5079316;28;4172;-64
2022/02/05 13:03:02;;;;;;;;;;;;;;;21.90;45.21;101055.22;5084446;28;4270;-65
2022/02/05 13:05:32;;;;;;;;;;;;;;;21.82;44.99;101046.22;5057267;28;5283;-62
2022/02/05 13:07:58;;;;;;;;;;;;;;;21.78;44.34;101046.03;5083179;28;4919;-64
2022/02/05 13:10:26;;;;;;;;;;;;;;;21.81;45.58;101051.25;5086854;28;4204;-63
2022/02/05 13:12:57;;;;;;;;;;;;;;;21.88;45.54;101049.38;5083091;28;4114;-63
2022/02/05 13:15:25;;;;;;;;;;;;;;;21.89;45.59;101051.56;5071810;28;4086;-63
2022/02/05 13:25:53;;;;;;;;;;;;;;;21.71;44.72;101068.06;5080702;28;4290;-66
2022/02/05 13:36:02;;;;;;;;;;;;;;;21.58;41.38;101068.94;5064514;28;4190;-66
2022/02/05 13:38:34;;;;;;;;;;;;;;;21.71;42.10;101065.94;5075144;28;4153;-66
2022/02/05 13:41:02;;;;;;;;;;;;;;;21.79;43.26;101076.34;5082699;28;4230;-69
2022/02/05 13:43:42;;;;;;;;;;;;;;;21.72;43.55;101073.19;5084317;28;4262;-66
2022/02/05 13:46:12;;;;;;;;;;;;;;;21.84;43.46;101078.00;5081808;28;4175;-67
2022/02/05 13:48:39;;;;;;;;;;;;;;;21.08;38.11;101065.94;5082752;28;4229;-66
2022/02/05 13:51:05;;;;;;;;;;;;;;;20.21;35.83;101080.44;5079290;28;4224;-62
2022/02/05 13:53:32;;;;;;;;;;;;;;;20.68;37.46;101079.88;5083444;28;5454;-63
2022/02/05 13:56:02;;;;;;;;;;;;;;;21.11;37.96;101081.91;5077969;28;5411;-65
2022/02/05 13:58:35;;;;;;;;;;;;;;;21.36;39.87;101069.38;5080697;28;4166;-63
2022/02/05 14:01:03;;;;;;;;;;;;;;;21.53;40.69;101068.00;5068821;28;4213;-63
2022/02/05 14:03:30;;;;;;;;;;;;;;;21.53;41.73;101076.66;5073876;28;4030;-62
2022/02/05 14:06:03;;;;;;;;;;;;;;;21.57;43.47;101073.97;5078693;28;4174;-62
2022/02/05 14:08:31;;;;;;;;;;;;;;;21.60;43.12;101071.91;5082022;28;4149;-64
2022/02/05 14:11:00;;;;;;;;;;;;;;;21.64;43.08;101069.94;5075975;28;4243;-69
2022/02/05 14:13:27;;;;;;;;;;;;;;;21.67;42.96;101070.78;5080647;28;4145;-71
2022/02/05 14:15:55;;;;;;;;;;;;;;;21.75;42.99;101069.00;5082254;28;5309;-70
2022/02/05 14:18:22;;;;;;;;;;;;;;;21.98;43.43;101069.25;5074361;28;4176;-70
2022/02/05 14:20:49;;;;;;;;;;;;;;;21.95;43.50;101082.81;5082239;28;4215;-68
2022/02/05 14:23:18;;;;;;;;;;;;;;;21.25;41.08;101073.19;5077654;28;3960;-68
2022/02/05 14:25:48;;;;;;;;;;;;;;;20.74;40.43;101077.31;5078814;28;4119;-67
2022/02/05 14:28:27;;;;;;;;;;;;;;;19.88;38.19;101070.13;5076623;28;4082;-67
2022/02/05 14:31:06;;;;;;;;;;;;;;;20.54;38.91;101064.78;5066961;28;4206;-65
2022/02/05 14:33:43;;;;;;;;;;;;;;;21.01;40.61;101075.69;5078666;28;4038;-67
2022/02/05 14:36:23;;;;;;;;;;;;;;;21.23;39.82;101070.97;5076640;28;4056;-66
2022/02/05 14:41:34;;;;;;;;;;;;;;;21.34;41.40;101084.44;5054555;28;4239;-65
2022/02/05 14:44:01;;;;;;;;;;;;;;;21.36;42.19;101080.91;5057192;28;4133;-65
2022/02/05 14:46:27;;;;;;;;;;;;;;;21.37;41.96;101084.53;5082183;28;5402;-65
2022/02/05 14:48:53;;;;;;;;;;;;;;;21.38;42.66;101074.50;5081923;28;4081;-65
2022/02/05 14:51:20;;;;;;;;;;;;;;;21.40;42.41;101072.50;5082947;28;5273;-65
2022/02/05 14:53:46;;;;;;;;;;;;;;;21.41;42.08;101070.34;5081135;28;4511;-65
2022/02/05 14:56:12;;;;;;;;;;;;;;;21.40;41.77;101066.72;5084191;28;4174;-64
2022/02/05 14:58:39;;;;;;;;;;;;;;;21.41;42.00;101073.22;5077804;28;4249;-65
2022/02/05 15:01:05;;;;;;;;;;;;;;;21.42;42.06;101068.97;5082366;28;5351;-66
2022/02/05 15:03:35;;;;;;;;;;;;;;;21.43;42.04;101070.44;5083096;28;4053;-63
2022/02/05 15:06:07;;;;;;;;;;;;;;;21.43;41.93;101070.44;5076772;28;4663;-66
2022/02/05 15:08:33;;;;;;;;;;;;;;;21.45;43.13;101073.41;5080225;28;4124;-65
2022/02/05 15:11:00;;;;;;;;;;;;;;;21.48;42.77;101077.88;5082214;28;4334;-64
2022/02/05 15:13:26;;;;;;;;;;;;;;;21.46;42.66;101069.13;5084926;28;4043;-66
2022/02/05 15:15:53;;;;;;;;;;;;;;;21.42;42.34;101066.09;5080304;28;4216;-65
2022/02/05 15:18:20;;;;;;;;;;;;;;;21.43;42.19;101070.44;5083262;28;4372;-66